sensor_id;sensor_type;location;lat;lon;timestamp;temperature;humidity
2749;DHT22;1382;52.142;11.618;2022-12-18T00:02:16;0.10;51.00
2749;DHT22;1382;52.142;11.618;2022-12-18T00:04:43;0.10;50.90
2749;DHT22;1382;52.142;11.618;2022-12-18T00:07:10;0.10;50.90
2749;DHT22;1382;52.142;11.618;2022-12-18T00:09:38;0.00;50.80
2749;DHT22;1382;52.142;11.618;2022-12-18T00:12:06;0.00;50.90
2749;DHT22;1382;52.142;11.618;2022-12-18T00:14:41;0.00;50.90
2749;DHT22;1382;52.142;11.618;2022-12-18T00:17:08;0.00;50.90
2749;DHT22;1382;52.142;11.618;2022-12-18T00:19:34;0.00;50.90
2749;DHT22;1382;52.142;11.618;2022-12-18T00:22:01;0.00;50.90
2749;DHT22;1382;52.142;11.618;2022-12-18T00:24:28;0.00;50.90
2749;DHT22;1382;52.142;11.618;2022-12-18T00:26:56;0.00;51.60
2749;DHT22;1382;52.142;11.618;2022-12-18T00:29:23;0.00;51.00
2749;DHT22;1382;52.142;11.618;2022-12-18T00:31:50;0.00;50.90
2749;DHT22;1382;52.142;11.618;2022-12-18T00:34:17;-0.10;50.90
2749;DHT22;1382;52.142;11.618;2022-12-18T00:36:43;-0.10;50.90
2749;DHT22;1382;52.142;11.618;2022-12-18T00:39:11;0.10;51.00
2749;DHT22;1382;52.142;11.618;2022-12-18T00:41:37;-0.10;50.80
2749;DHT22;1382;52.142;11.618;2022-12-18T00:44:07;-0.10;50.80
2749;DHT22;1382;52.142;11.618;2022-12-18T00:46:35;-0.10;50.90
2749;DHT22;1382;52.142;11.618;2022-12-18T00:49:02;-0.10;50.80
2749;DHT22;1382;52.142;11.618;2022-12-18T00:51:29;-0.10;50.80
2749;DHT22;1382;52.142;11.618;2022-12-18T00:53:56;-0.10;50.90
2749;DHT22;1382;52.142;11.618;2022-12-18T00:56:23;-0.10;50.80
2749;DHT22;1382;52.142;11.618;2022-12-18T00:58:50;-0.20;50.80
2749;DHT22;1382;52.142;11.618;2022-12-18T01:01:19;-0.20;50.80
2749;DHT22;1382;52.142;11.618;2022-12-18T01:03:46;-0.20;50.80
2749;DHT22;1382;52.142;11.618;2022-12-18T01:06:14;-0.20;50.80
2749;DHT22;1382;52.142;11.618;2022-12-18T01:08:41;-0.20;50.80
2749;DHT22;1382;52.142;11.618;2022-12-18T01:11:10;-0.20;50.80
2749;DHT22;1382;52.142;11.618;2022-12-18T01:13:37;-0.30;50.80
2749;DHT22;1382;52.142;11.618;2022-12-18T01:16:05;-0.30;51.10
2749;DHT22;1382;52.142;11.618;2022-12-18T01:18:34;-0.30;50.80
2749;DHT22;1382;52.142;11.618;2022-12-18T01:21:06;-0.30;50.80
2749;DHT22;1382;52.142;11.618;2022-12-18T01:23:32;-0.30;50.70
2749;DHT22;1382;52.142;11.618;2022-12-18T01:26:15;-0.30;50.70
2749;DHT22;1382;52.142;11.618;2022-12-18T01:28:42;-0.30;50.70
2749;DHT22;1382;52.142;11.618;2022-12-18T01:31:11;-0.30;50.80
2749;DHT22;1382;52.142;11.618;2022-12-18T01:33:40;-0.30;50.70
2749;DHT22;1382;52.142;11.618;2022-12-18T01:36:07;-0.30;50.70
2749;DHT22;1382;52.142;11.618;2022-12-18T01:38:34;-0.40;50.70
2749;DHT22;1382;52.142;11.618;2022-12-18T01:41:01;-0.40;50.70
2749;DHT22;1382;52.142;11.618;2022-12-18T01:43:44;-0.40;50.70
2749;DHT22;1382;52.142;11.618;2022-12-18T01:46:12;-0.40;50.70
2749;DHT22;1382;52.142;11.618;2022-12-18T01:48:44;-0.40;50.80
2749;DHT22;1382;52.142;11.618;2022-12-18T01:51:11;-0.40;50.70
2749;DHT22;1382;52.142;11.618;2022-12-18T01:53:41;-0.40;50.80
2749;DHT22;1382;52.142;11.618;2022-12-18T01:56:11;-0.40;50.70
2749;DHT22;1382;52.142;11.618;2022-12-18T01:58:44;-0.40;50.80
2749;DHT22;1382;52.142;11.618;2022-12-18T02:01:11;-0.30;50.80
2749;DHT22;1382;52.142;11.618;2022-12-18T02:03:42;-0.40;50.70
2749;DHT22;1382;52.142;11.618;2022-12-18T02:06:13;-0.50;50.70
2749;DHT22;1382;52.142;11.618;2022-12-18T02:08:48;-0.50;50.70
2749;DHT22;1382;52.142;11.618;2022-12-18T02:11:22;-0.50;50.80
2749;DHT22;1382;52.142;11.618;2022-12-18T02:14:04;-0.50;50.70
2749;DHT22;1382;52.142;11.618;2022-12-18T02:16:39;-0.50;50.70
2749;DHT22;1382;52.142;11.618;2022-12-18T02:19:20;-0.50;50.70
2749;DHT22;1382;52.142;11.618;2022-12-18T02:21:55;-0.50;50.70
2749;DHT22;1382;52.142;11.618;2022-12-18T02:24:29;-0.50;50.70
2749;DHT22;1382;52.142;11.618;2022-12-18T02:27:00;-0.50;50.70
2749;DHT22;1382;52.142;11.618;2022-12-18T02:29:32;-0.50;50.70
2749;DHT22;1382;52.142;11.618;2022-12-18T02:32:02;-0.40;50.80
2749;DHT22;1382;52.142;11.618;2022-12-18T02:34:34;-0.60;50.60
2749;DHT22;1382;52.142;11.618;2022-12-18T02:37:05;-0.60;50.70
2749;DHT22;1382;52.142;11.618;2022-12-18T02:39:34;-0.60;50.60
2749;DHT22;1382;52.142;11.618;2022-12-18T02:42:02;-0.60;50.60
2749;DHT22;1382;52.142;11.618;2022-12-18T02:44:29;-0.60;50.70
2749;DHT22;1382;52.142;11.618;2022-12-18T02:46:56;-0.60;50.70
2749;DHT22;1382;52.142;11.618;2022-12-18T02:49:33;-0.60;50.60
2749;DHT22;1382;52.142;11.618;2022-12-18T02:52:06;-0.60;50.60
2749;DHT22;1382;52.142;11.618;2022-12-18T02:54:45;-0.60;50.60
2749;DHT22;1382;52.142;11.618;2022-12-18T02:57:21;-0.70;50.50
2749;DHT22;1382;52.142;11.618;2022-12-18T02:59:56;-0.70;50.60
2749;DHT22;1382;52.142;11.618;2022-12-18T03:02:29;-0.70;50.60
2749;DHT22;1382;52.142;11.618;2022-12-18T03:05:02;-0.70;50.60
2749;DHT22;1382;52.142;11.618;2022-12-18T03:07:36;-0.70;50.60
2749;DHT22;1382;52.142;11.618;2022-12-18T03:10:06;-0.70;50.60
2749;DHT22;1382;52.142;11.618;2022-12-18T03:12:39;-0.70;50.60
2749;DHT22;1382;52.142;11.618;2022-12-18T03:15:09;-0.80;50.60
2749;DHT22;1382;52.142;11.618;2022-12-18T03:17:46;-0.80;50.60
2749;DHT22;1382;52.142;11.618;2022-12-18T03:20:18;-0.80;50.60
2749;DHT22;1382;52.142;11.618;2022-12-18T03:22:48;-0.80;50.60
2749;DHT22;1382;52.142;11.618;2022-12-18T03:25:17;-0.80;50.60
2749;DHT22;1382;52.142;11.618;2022-12-18T03:27:48;-0.80;50.60
2749;DHT22;1382;52.142;11.618;2022-12-18T03:30:16;-0.80;50.60
2749;DHT22;1382;52.142;11.618;2022-12-18T03:32:47;-0.80;50.60
2749;DHT22;1382;52.142;11.618;2022-12-18T03:35:20;-0.80;50.60
2749;DHT22;1382;52.142;11.618;2022-12-18T03:37:48;-0.80;50.60
2749;DHT22;1382;52.142;11.618;2022-12-18T03:40:15;-0.80;50.60
2749;DHT22;1382;52.142;11.618;2022-12-18T03:42:48;-0.80;50.60
2749;DHT22;1382;52.142;11.618;2022-12-18T03:45:22;-0.80;50.60
2749;DHT22;1382;52.142;11.618;2022-12-18T03:47:58;-0.80;50.60
2749;DHT22;1382;52.142;11.618;2022-12-18T03:50:33;-0.80;50.50
2749;DHT22;1382;52.142;11.618;2022-12-18T03:53:08;-0.80;50.50
2749;DHT22;1382;52.142;11.618;2022-12-18T03:55:37;-0.80;50.50
2749;DHT22;1382;52.142;11.618;2022-12-18T03:58:07;-0.80;50.50
2749;DHT22;1382;52.142;11.618;2022-12-18T04:00:35;-0.80;50.50
2749;DHT22;1382;52.142;11.618;2022-12-18T04:03:03;-0.80;50.50
2749;DHT22;1382;52.142;11.618;2022-12-18T04:05:33;-0.80;50.60
2749;DHT22;1382;52.142;11.618;2022-12-18T04:08:01;-0.80;50.50
2749;DHT22;1382;52.142;11.618;2022-12-18T04:10:28;-0.80;50.50
2749;DHT22;1382;52.142;11.618;2022-12-18T04:12:56;-0.90;50.40
2749;DHT22;1382;52.142;11.618;2022-12-18T04:15:24;-0.80;50.50
2749;DHT22;1382;52.142;11.618;2022-12-18T04:17:51;-0.90;50.40
2749;DHT22;1382;52.142;11.618;2022-12-18T04:20:18;-0.90;50.50
2749;DHT22;1382;52.142;11.618;2022-12-18T04:22:45;-0.90;50.40
2749;DHT22;1382;52.142;11.618;2022-12-18T04:25:12;-0.90;50.50
2749;DHT22;1382;52.142;11.618;2022-12-18T04:27:39;-0.90;50.50
2749;DHT22;1382;52.142;11.618;2022-12-18T04:30:07;-0.90;50.40
2749;DHT22;1382;52.142;11.618;2022-12-18T04:32:35;-0.90;50.40
2749;DHT22;1382;52.142;11.618;2022-12-18T04:35:02;-0.70;50.70
2749;DHT22;1382;52.142;11.618;2022-12-18T04:37:29;-0.90;50.50
2749;DHT22;1382;52.142;11.618;2022-12-18T04:39:56;-0.90;50.50
2749;DHT22;1382;52.142;11.618;2022-12-18T04:42:23;-0.90;50.40
2749;DHT22;1382;52.142;11.618;2022-12-18T04:44:50;-1.00;50.40
2749;DHT22;1382;52.142;11.618;2022-12-18T04:47:17;-1.00;50.40
2749;DHT22;1382;52.142;11.618;2022-12-18T04:49:45;-1.00;50.40
2749;DHT22;1382;52.142;11.618;2022-12-18T04:52:11;-1.00;50.40
2749;DHT22;1382;52.142;11.618;2022-12-18T04:54:38;-1.00;50.50
2749;DHT22;1382;52.142;11.618;2022-12-18T04:57:05;-1.00;50.40
2749;DHT22;1382;52.142;11.618;2022-12-18T04:59:32;-1.00;50.40
2749;DHT22;1382;52.142;11.618;2022-12-18T05:01:59;-1.00;50.40
2749;DHT22;1382;52.142;11.618;2022-12-18T05:04:26;-1.00;50.40
2749;DHT22;1382;52.142;11.618;2022-12-18T05:06:54;-1.00;50.40
2749;DHT22;1382;52.142;11.618;2022-12-18T05:09:21;-1.00;50.40
2749;DHT22;1382;52.142;11.618;2022-12-18T05:11:47;-1.00;50.40
2749;DHT22;1382;52.142;11.618;2022-12-18T05:14:14;-1.00;50.40
2749;DHT22;1382;52.142;11.618;2022-12-18T05:16:41;-1.10;50.30
2749;DHT22;1382;52.142;11.618;2022-12-18T05:19:08;-1.10;50.40
2749;DHT22;1382;52.142;11.618;2022-12-18T05:21:35;-1.10;50.40
2749;DHT22;1382;52.142;11.618;2022-12-18T05:24:04;-1.10;50.40
2749;DHT22;1382;52.142;11.618;2022-12-18T05:26:31;-1.10;50.40
2749;DHT22;1382;52.142;11.618;2022-12-18T05:28:58;-1.10;50.40
2749;DHT22;1382;52.142;11.618;2022-12-18T05:31:24;-1.10;50.30
2749;DHT22;1382;52.142;11.618;2022-12-18T05:33:51;-1.10;50.30
2749;DHT22;1382;52.142;11.618;2022-12-18T05:36:18;-1.10;50.30
2749;DHT22;1382;52.142;11.618;2022-12-18T05:38:45;-1.10;50.30
2749;DHT22;1382;52.142;11.618;2022-12-18T05:41:13;-1.10;50.30
2749;DHT22;1382;52.142;11.618;2022-12-18T05:43:40;-1.10;50.30
2749;DHT22;1382;52.142;11.618;2022-12-18T05:46:11;-1.10;50.30
2749;DHT22;1382;52.142;11.618;2022-12-18T05:48:39;-1.10;50.40
2749;DHT22;1382;52.142;11.618;2022-12-18T05:51:07;-1.20;50.30
2749;DHT22;1382;52.142;11.618;2022-12-18T05:53:35;-1.20;50.40
2749;DHT22;1382;52.142;11.618;2022-12-18T05:56:05;-1.20;50.30
2749;DHT22;1382;52.142;11.618;2022-12-18T05:58:34;-1.10;50.30
2749;DHT22;1382;52.142;11.618;2022-12-18T06:01:07;-1.20;50.30
2749;DHT22;1382;52.142;11.618;2022-12-18T06:03:34;-1.20;50.30
2749;DHT22;1382;52.142;11.618;2022-12-18T06:06:01;-1.20;50.20
2749;DHT22;1382;52.142;11.618;2022-12-18T06:08:28;-1.20;50.30
2749;DHT22;1382;52.142;11.618;2022-12-18T06:10:56;-1.20;50.20
2749;DHT22;1382;52.142;11.618;2022-12-18T06:13:24;-1.20;50.30
2749;DHT22;1382;52.142;11.618;2022-12-18T06:15:52;-1.20;50.30
2749;DHT22;1382;52.142;11.618;2022-12-18T06:18:19;-1.20;50.30
2749;DHT22;1382;52.142;11.618;2022-12-18T06:20:54;-1.20;50.30
2749;DHT22;1382;52.142;11.618;2022-12-18T06:23:21;-1.20;50.30
2749;DHT22;1382;52.142;11.618;2022-12-18T06:25:48;-1.30;50.30
2749;DHT22;1382;52.142;11.618;2022-12-18T06:28:14;-1.20;50.40
2749;DHT22;1382;52.142;11.618;2022-12-18T06:30:43;-1.30;50.30
2749;DHT22;1382;52.142;11.618;2022-12-18T06:33:11;-1.30;50.30
2749;DHT22;1382;52.142;11.618;2022-12-18T06:35:38;-1.30;50.40
2749;DHT22;1382;52.142;11.618;2022-12-18T06:38:05;-1.30;50.40
2749;DHT22;1382;52.142;11.618;2022-12-18T06:40:32;-1.30;50.40
2749;DHT22;1382;52.142;11.618;2022-12-18T06:42:59;-1.30;50.30
2749;DHT22;1382;52.142;11.618;2022-12-18T06:45:25;-1.40;50.20
2749;DHT22;1382;52.142;11.618;2022-12-18T06:47:53;-1.40;50.20
2749;DHT22;1382;52.142;11.618;2022-12-18T06:50:21;-1.40;50.20
2749;DHT22;1382;52.142;11.618;2022-12-18T06:52:48;-1.40;50.20
2749;DHT22;1382;52.142;11.618;2022-12-18T06:55:15;-1.40;50.30
2749;DHT22;1382;52.142;11.618;2022-12-18T06:57:42;-1.40;50.30
2749;DHT22;1382;52.142;11.618;2022-12-18T07:00:09;-1.40;50.30
2749;DHT22;1382;52.142;11.618;2022-12-18T07:02:36;-1.50;50.20
2749;DHT22;1382;52.142;11.618;2022-12-18T07:05:04;-1.50;50.30
2749;DHT22;1382;52.142;11.618;2022-12-18T07:07:37;-1.40;50.40
2749;DHT22;1382;52.142;11.618;2022-12-18T07:10:05;-1.50;50.30
2749;DHT22;1382;52.142;11.618;2022-12-18T07:12:32;-1.50;50.20
2749;DHT22;1382;52.142;11.618;2022-12-18T07:14:58;-1.50;50.20
2749;DHT22;1382;52.142;11.618;2022-12-18T07:17:25;-1.50;50.20
2749;DHT22;1382;52.142;11.618;2022-12-18T07:19:52;-1.50;50.10
2749;DHT22;1382;52.142;11.618;2022-12-18T07:22:19;-1.50;50.10
2749;DHT22;1382;52.142;11.618;2022-12-18T07:24:47;-1.50;50.10
2749;DHT22;1382;52.142;11.618;2022-12-18T07:27:14;-1.40;50.20
2749;DHT22;1382;52.142;11.618;2022-12-18T07:29:41;-1.50;50.10
2749;DHT22;1382;52.142;11.618;2022-12-18T07:32:08;-1.50;50.10
2749;DHT22;1382;52.142;11.618;2022-12-18T07:34:35;-1.50;50.00
2749;DHT22;1382;52.142;11.618;2022-12-18T07:37:02;-1.50;50.00
2749;DHT22;1382;52.142;11.618;2022-12-18T07:39:29;-1.50;50.00
2749;DHT22;1382;52.142;11.618;2022-12-18T07:41:57;-1.50;50.00
2749;DHT22;1382;52.142;11.618;2022-12-18T07:44:24;-1.50;50.00
2749;DHT22;1382;52.142;11.618;2022-12-18T07:46:51;-1.50;50.00
2749;DHT22;1382;52.142;11.618;2022-12-18T07:49:17;-1.50;50.00
2749;DHT22;1382;52.142;11.618;2022-12-18T07:51:44;-1.60;49.90
2749;DHT22;1382;52.142;11.618;2022-12-18T07:54:11;-1.60;49.90
2749;DHT22;1382;52.142;11.618;2022-12-18T07:56:38;-1.60;50.00
2749;DHT22;1382;52.142;11.618;2022-12-18T07:59:06;-1.60;50.00
2749;DHT22;1382;52.142;11.618;2022-12-18T08:01:33;-1.60;50.00
2749;DHT22;1382;52.142;11.618;2022-12-18T08:04:00;-1.60;49.90
2749;DHT22;1382;52.142;11.618;2022-12-18T08:06:27;-1.70;49.90
2749;DHT22;1382;52.142;11.618;2022-12-18T08:08:55;-1.70;49.90
2749;DHT22;1382;52.142;11.618;2022-12-18T08:11:22;-1.70;49.90
2749;DHT22;1382;52.142;11.618;2022-12-18T08:13:50;-1.70;49.90
2749;DHT22;1382;52.142;11.618;2022-12-18T08:16:19;-1.70;49.90
2749;DHT22;1382;52.142;11.618;2022-12-18T08:18:46;-1.70;49.90
2749;DHT22;1382;52.142;11.618;2022-12-18T08:21:16;-1.70;49.90
2749;DHT22;1382;52.142;11.618;2022-12-18T08:23:44;-1.70;49.90
2749;DHT22;1382;52.142;11.618;2022-12-18T08:26:11;-1.70;49.90
2749;DHT22;1382;52.142;11.618;2022-12-18T08:28:39;-1.80;49.90
2749;DHT22;1382;52.142;11.618;2022-12-18T08:31:06;-1.80;50.00
2749;DHT22;1382;52.142;11.618;2022-12-18T08:33:35;-1.80;50.00
2749;DHT22;1382;52.142;11.618;2022-12-18T08:36:04;-1.80;50.00
2749;DHT22;1382;52.142;11.618;2022-12-18T08:38:31;-1.80;50.00
2749;DHT22;1382;52.142;11.618;2022-12-18T08:40:59;-1.80;50.00
2749;DHT22;1382;52.142;11.618;2022-12-18T08:43:26;-1.60;50.10
2749;DHT22;1382;52.142;11.618;2022-12-18T08:45:52;-1.80;50.00
2749;DHT22;1382;52.142;11.618;2022-12-18T08:48:20;-1.80;50.00
2749;DHT22;1382;52.142;11.618;2022-12-18T08:50:55;-1.90;50.10
2749;DHT22;1382;52.142;11.618;2022-12-18T08:53:22;-1.80;50.10
2749;DHT22;1382;52.142;11.618;2022-12-18T08:55:49;-1.80;50.20
2749;DHT22;1382;52.142;11.618;2022-12-18T08:58:16;-1.80;50.10
2749;DHT22;1382;52.142;11.618;2022-12-18T09:00:43;-1.80;50.10
2749;DHT22;1382;52.142;11.618;2022-12-18T09:03:11;-2.00;50.00
2749;DHT22;1382;52.142;11.618;2022-12-18T09:05:38;-1.80;50.20
2749;DHT22;1382;52.142;11.618;2022-12-18T09:08:07;-1.80;50.10
2749;DHT22;1382;52.142;11.618;2022-12-18T09:10:34;-1.80;50.10
2749;DHT22;1382;52.142;11.618;2022-12-18T09:13:09;-1.80;50.10
2749;DHT22;1382;52.142;11.618;2022-12-18T09:15:40;-1.70;50.20
2749;DHT22;1382;52.142;11.618;2022-12-18T09:18:07;-1.70;50.20
2749;DHT22;1382;52.142;11.618;2022-12-18T09:20:34;-1.70;50.20
2749;DHT22;1382;52.142;11.618;2022-12-18T09:23:01;-1.70;50.20
2749;DHT22;1382;52.142;11.618;2022-12-18T09:25:30;-1.70;50.20
2749;DHT22;1382;52.142;11.618;2022-12-18T09:27:57;-1.60;50.20
2749;DHT22;1382;52.142;11.618;2022-12-18T09:30:23;-1.60;50.30
2749;DHT22;1382;52.142;11.618;2022-12-18T09:32:50;-1.60;50.20
2749;DHT22;1382;52.142;11.618;2022-12-18T09:35:17;-1.60;50.30
2749;DHT22;1382;52.142;11.618;2022-12-18T09:37:44;-1.50;50.30
2749;DHT22;1382;52.142;11.618;2022-12-18T09:40:14;-1.50;50.20
2749;DHT22;1382;52.142;11.618;2022-12-18T09:42:46;-1.50;50.20
2749;DHT22;1382;52.142;11.618;2022-12-18T09:45:16;-1.40;50.30
2749;DHT22;1382;52.142;11.618;2022-12-18T09:47:45;-1.40;50.30
2749;DHT22;1382;52.142;11.618;2022-12-18T09:50:22;-1.40;50.30
2749;DHT22;1382;52.142;11.618;2022-12-18T09:52:54;-1.30;50.30
2749;DHT22;1382;52.142;11.618;2022-12-18T09:55:25;-1.30;50.40
2749;DHT22;1382;52.142;11.618;2022-12-18T09:58:06;-1.30;50.40
2749;DHT22;1382;52.142;11.618;2022-12-18T10:00:38;-1.30;50.40
2749;DHT22;1382;52.142;11.618;2022-12-18T10:03:10;-1.30;50.50
2749;DHT22;1382;52.142;11.618;2022-12-18T10:05:40;-1.00;50.80
2749;DHT22;1382;52.142;11.618;2022-12-18T10:08:15;-1.20;50.60
2749;DHT22;1382;52.142;11.618;2022-12-18T10:10:47;-1.20;50.70
2749;DHT22;1382;52.142;11.618;2022-12-18T10:13:23;-1.20;50.80
2749;DHT22;1382;52.142;11.618;2022-12-18T10:15:58;-1.10;50.90
2749;DHT22;1382;52.142;11.618;2022-12-18T10:18:36;-1.10;51.00
2749;DHT22;1382;52.142;11.618;2022-12-18T10:21:11;-1.10;51.00
2749;DHT22;1382;52.142;11.618;2022-12-18T10:23:47;-1.10;51.10
2749;DHT22;1382;52.142;11.618;2022-12-18T10:26:17;-1.10;51.10
2749;DHT22;1382;52.142;11.618;2022-12-18T10:28:45;-1.00;51.20
2749;DHT22;1382;52.142;11.618;2022-12-18T10:31:15;-1.10;51.30
2749;DHT22;1382;52.142;11.618;2022-12-18T10:33:43;-1.00;51.60
2749;DHT22;1382;52.142;11.618;2022-12-18T10:36:10;-1.00;51.60
2749;DHT22;1382;52.142;11.618;2022-12-18T10:38:37;-0.90;51.60
2749;DHT22;1382;52.142;11.618;2022-12-18T10:41:06;-0.90;52.10
2749;DHT22;1382;52.142;11.618;2022-12-18T10:43:34;-0.90;51.50
2749;DHT22;1382;52.142;11.618;2022-12-18T10:46:13;-0.80;51.50
2749;DHT22;1382;52.142;11.618;2022-12-18T10:48:48;-0.70;51.40
2749;DHT22;1382;52.142;11.618;2022-12-18T10:51:21;-0.70;51.40
2749;DHT22;1382;52.142;11.618;2022-12-18T10:53:53;-0.70;51.30
2749;DHT22;1382;52.142;11.618;2022-12-18T10:56:21;-0.60;51.30
2749;DHT22;1382;52.142;11.618;2022-12-18T10:58:56;-0.50;51.40
2749;DHT22;1382;52.142;11.618;2022-12-18T11:01:25;-0.50;51.50
2749;DHT22;1382;52.142;11.618;2022-12-18T11:04:00;-0.50;51.50
2749;DHT22;1382;52.142;11.618;2022-12-18T11:06:29;-0.40;52.30
2749;DHT22;1382;52.142;11.618;2022-12-18T11:09:01;-0.40;51.60
2749;DHT22;1382;52.142;11.618;2022-12-18T11:11:33;-0.40;51.80
2749;DHT22;1382;52.142;11.618;2022-12-18T11:14:03;-0.30;52.00
2749;DHT22;1382;52.142;11.618;2022-12-18T11:16:36;-0.30;52.10
2749;DHT22;1382;52.142;11.618;2022-12-18T11:19:17;-0.30;52.10
2749;DHT22;1382;52.142;11.618;2022-12-18T11:21:46;-0.30;52.20
2749;DHT22;1382;52.142;11.618;2022-12-18T11:24:20;-0.20;52.40
2749;DHT22;1382;52.142;11.618;2022-12-18T11:26:49;-0.20;52.50
2749;DHT22;1382;52.142;11.618;2022-12-18T11:29:27;-0.20;52.50
2749;DHT22;1382;52.142;11.618;2022-12-18T11:32:27;-0.20;52.60
2749;DHT22;1382;52.142;11.618;2022-12-18T11:34:59;-0.10;52.60
2749;DHT22;1382;52.142;11.618;2022-12-18T11:37:28;-0.20;52.60
2749;DHT22;1382;52.142;11.618;2022-12-18T11:39:59;-0.20;52.60
2749;DHT22;1382;52.142;11.618;2022-12-18T11:42:32;-0.20;52.70
2749;DHT22;1382;52.142;11.618;2022-12-18T11:45:08;-0.10;52.60
2749;DHT22;1382;52.142;11.618;2022-12-18T11:47:44;-0.10;52.70
2749;DHT22;1382;52.142;11.618;2022-12-18T11:50:14;-0.10;52.70
2749;DHT22;1382;52.142;11.618;2022-12-18T11:52:42;-0.10;52.60
2749;DHT22;1382;52.142;11.618;2022-12-18T11:55:12;-0.10;52.60
2749;DHT22;1382;52.142;11.618;2022-12-18T11:57:44;-0.10;52.50
2749;DHT22;1382;52.142;11.618;2022-12-18T12:00:15;0.00;52.50
2749;DHT22;1382;52.142;11.618;2022-12-18T12:03:03;0.00;52.50
2749;DHT22;1382;52.142;11.618;2022-12-18T12:05:42;0.00;52.40
2749;DHT22;1382;52.142;11.618;2022-12-18T12:08:18;0.00;52.40
2749;DHT22;1382;52.142;11.618;2022-12-18T12:10:54;0.00;52.40
2749;DHT22;1382;52.142;11.618;2022-12-18T12:13:33;0.00;52.40
2749;DHT22;1382;52.142;11.618;2022-12-18T12:16:13;0.00;52.40
2749;DHT22;1382;52.142;11.618;2022-12-18T12:18:53;0.10;52.30
2749;DHT22;1382;52.142;11.618;2022-12-18T12:21:28;0.10;52.20
2749;DHT22;1382;52.142;11.618;2022-12-18T12:24:02;0.10;52.20
2749;DHT22;1382;52.142;11.618;2022-12-18T12:26:38;0.10;52.10
2749;DHT22;1382;52.142;11.618;2022-12-18T12:29:26;0.10;52.00
2749;DHT22;1382;52.142;11.618;2022-12-18T12:32:07;0.20;52.00
2749;DHT22;1382;52.142;11.618;2022-12-18T12:34:45;0.20;51.90
2749;DHT22;1382;52.142;11.618;2022-12-18T12:37:29;0.20;51.90
2749;DHT22;1382;52.142;11.618;2022-12-18T12:40:01;0.20;51.80
2749;DHT22;1382;52.142;11.618;2022-12-18T12:42:52;0.20;51.90
2749;DHT22;1382;52.142;11.618;2022-12-18T12:45:24;0.20;51.90
2749;DHT22;1382;52.142;11.618;2022-12-18T12:47:54;0.20;51.90
2749;DHT22;1382;52.142;11.618;2022-12-18T12:50:26;0.20;52.50
2749;DHT22;1382;52.142;11.618;2022-12-18T12:52:55;0.20;51.80
2749;DHT22;1382;52.142;11.618;2022-12-18T12:55:24;0.20;51.80
2749;DHT22;1382;52.142;11.618;2022-12-18T12:57:57;0.20;51.90
2749;DHT22;1382;52.142;11.618;2022-12-18T13:00:30;0.20;51.90
2749;DHT22;1382;52.142;11.618;2022-12-18T13:03:11;0.30;52.00
2749;DHT22;1382;52.142;11.618;2022-12-18T13:05:45;0.30;52.00
2749;DHT22;1382;52.142;11.618;2022-12-18T13:08:23;0.30;51.90
2749;DHT22;1382;52.142;11.618;2022-12-18T13:10:51;0.30;52.00
2749;DHT22;1382;52.142;11.618;2022-12-18T13:13:21;0.30;51.90
2749;DHT22;1382;52.142;11.618;2022-12-18T13:16:04;0.30;52.00
2749;DHT22;1382;52.142;11.618;2022-12-18T13:18:32;0.30;51.90
2749;DHT22;1382;52.142;11.618;2022-12-18T13:21:11;0.30;52.00
2749;DHT22;1382;52.142;11.618;2022-12-18T13:23:41;0.40;52.10
2749;DHT22;1382;52.142;11.618;2022-12-18T13:26:28;0.40;52.20
2749;DHT22;1382;52.142;11.618;2022-12-18T13:28:56;0.40;52.20
2749;DHT22;1382;52.142;11.618;2022-12-18T13:34:34;0.40;52.20
2749;DHT22;1382;52.142;11.618;2022-12-18T13:37:39;0.40;52.30
2749;DHT22;1382;52.142;11.618;2022-12-18T13:43:23;0.40;52.20
2749;DHT22;1382;52.142;11.618;2022-12-18T13:46:00;0.40;52.30
2749;DHT22;1382;52.142;11.618;2022-12-18T13:48:31;0.40;52.20
2749;DHT22;1382;52.142;11.618;2022-12-18T13:51:01;0.40;52.90
2749;DHT22;1382;52.142;11.618;2022-12-18T13:53:34;0.40;52.10
2749;DHT22;1382;52.142;11.618;2022-12-18T13:56:04;0.50;52.10
2749;DHT22;1382;52.142;11.618;2022-12-18T13:58:31;0.40;52.00
2749;DHT22;1382;52.142;11.618;2022-12-18T14:00:58;0.50;51.90
2749;DHT22;1382;52.142;11.618;2022-12-18T14:03:27;0.50;51.90
2749;DHT22;1382;52.142;11.618;2022-12-18T14:06:01;0.50;51.80
2749;DHT22;1382;52.142;11.618;2022-12-18T14:08:36;0.50;51.80
2749;DHT22;1382;52.142;11.618;2022-12-18T14:11:05;0.50;51.70
2749;DHT22;1382;52.142;11.618;2022-12-18T14:13:36;0.50;51.60
2749;DHT22;1382;52.142;11.618;2022-12-18T14:16:05;0.50;51.60
2749;DHT22;1382;52.142;11.618;2022-12-18T14:18:38;0.50;51.50
2749;DHT22;1382;52.142;11.618;2022-12-18T14:21:18;0.50;51.50
2749;DHT22;1382;52.142;11.618;2022-12-18T14:23:47;0.50;51.40
2749;DHT22;1382;52.142;11.618;2022-12-18T14:26:23;0.60;51.30
2749;DHT22;1382;52.142;11.618;2022-12-18T14:28:50;0.60;51.20
2749;DHT22;1382;52.142;11.618;2022-12-18T14:31:20;0.60;51.20
2749;DHT22;1382;52.142;11.618;2022-12-18T14:33:49;0.60;51.10
2749;DHT22;1382;52.142;11.618;2022-12-18T14:36:18;0.60;50.90
2749;DHT22;1382;52.142;11.618;2022-12-18T14:38:50;0.60;50.80
2749;DHT22;1382;52.142;11.618;2022-12-18T14:41:18;0.60;50.70
2749;DHT22;1382;52.142;11.618;2022-12-18T14:43:46;0.50;50.70
2749;DHT22;1382;52.142;11.618;2022-12-18T14:46:33;0.50;50.70
2749;DHT22;1382;52.142;11.618;2022-12-18T14:49:02;0.60;50.70
2749;DHT22;1382;52.142;11.618;2022-12-18T14:51:31;0.50;51.20
2749;DHT22;1382;52.142;11.618;2022-12-18T14:54:01;0.50;50.60
2749;DHT22;1382;52.142;11.618;2022-12-18T14:56:30;0.50;50.60
2749;DHT22;1382;52.142;11.618;2022-12-18T14:58:58;0.40;50.50
2749;DHT22;1382;52.142;11.618;2022-12-18T15:01:29;0.40;50.50
2749;DHT22;1382;52.142;11.618;2022-12-18T15:03:58;0.40;50.50
2749;DHT22;1382;52.142;11.618;2022-12-18T15:06:29;0.30;50.50
2749;DHT22;1382;52.142;11.618;2022-12-18T15:08:57;0.30;50.60
2749;DHT22;1382;52.142;11.618;2022-12-18T15:11:34;0.30;50.60
2749;DHT22;1382;52.142;11.618;2022-12-18T15:14:22;0.30;50.60
2749;DHT22;1382;52.142;11.618;2022-12-18T15:16:53;0.30;50.60
2749;DHT22;1382;52.142;11.618;2022-12-18T15:19:22;0.30;50.60
2749;DHT22;1382;52.142;11.618;2022-12-18T15:21:49;0.20;50.50
2749;DHT22;1382;52.142;11.618;2022-12-18T15:24:18;0.20;50.50
2749;DHT22;1382;52.142;11.618;2022-12-18T15:26:48;0.20;50.60
2749;DHT22;1382;52.142;11.618;2022-12-18T15:29:22;0.20;50.60
2749;DHT22;1382;52.142;11.618;2022-12-18T15:31:59;0.20;50.60
2749;DHT22;1382;52.142;11.618;2022-12-18T15:34:26;0.20;50.50
2749;DHT22;1382;52.142;11.618;2022-12-18T15:36:54;0.10;50.60
2749;DHT22;1382;52.142;11.618;2022-12-18T15:39:21;0.20;50.60
2749;DHT22;1382;52.142;11.618;2022-12-18T15:41:52;0.20;50.60
2749;DHT22;1382;52.142;11.618;2022-12-18T15:44:22;0.20;50.50
2749;DHT22;1382;52.142;11.618;2022-12-18T15:46:49;0.20;50.40
2749;DHT22;1382;52.142;11.618;2022-12-18T15:49:16;0.20;50.40
2749;DHT22;1382;52.142;11.618;2022-12-18T15:51:43;0.20;50.40
2749;DHT22;1382;52.142;11.618;2022-12-18T15:54:13;0.10;51.00
2749;DHT22;1382;52.142;11.618;2022-12-18T15:56:41;0.10;50.30
2749;DHT22;1382;52.142;11.618;2022-12-18T15:59:12;0.10;50.40
2749;DHT22;1382;52.142;11.618;2022-12-18T16:01:39;0.10;50.30
2749;DHT22;1382;52.142;11.618;2022-12-18T16:04:09;0.10;50.30
2749;DHT22;1382;52.142;11.618;2022-12-18T16:06:37;0.10;50.40
2749;DHT22;1382;52.142;11.618;2022-12-18T16:09:23;0.10;50.30
2749;DHT22;1382;52.142;11.618;2022-12-18T16:11:52;0.10;50.30
2749;DHT22;1382;52.142;11.618;2022-12-18T16:14:22;0.10;50.40
2749;DHT22;1382;52.142;11.618;2022-12-18T16:16:51;0.10;50.30